Alta Loma, California
Current Conditions -  °F | °C
As of 12:53 AM on Saturday 29 Nov 2014 (Local Time) from KONT Reporting Station
Clear Clear  
Wind Chill: 13°   Ceiling: Unl
Heat Index: 13°   Visibility: 10mi
Dew Point: -1°   Wind: 0mph
Humidity: 40%   Direction: NA
Pressure: 29.9"   Gusts: NA
Location:  34.12°N, 117.6°W
Report Text: KONT 290853Z 00000KT 10SM CLR 13/M01 A2990 RMK AO2 SLP113 T01281006 58008
Loading
Personal Weather Stations






























Interactive Weather Map New forecast layout! Learn more

10-Day Weather Forecast

Advertisements
Track Severe Weather on mobile